createdAt,value
2023-01-17T00:02:12.085Z,99659.69
2023-01-17T00:04:58.568Z,99667.59
2023-01-17T00:07:45.042Z,99665.31
2023-01-17T00:10:15.818Z,99655.78
2023-01-17T00:12:55.768Z,99666.00
2023-01-17T00:15:24.721Z,99669.56
2023-01-17T00:17:53.535Z,99666.13
2023-01-17T00:20:48.532Z,99673.38
2023-01-17T00:23:42.681Z,99668.53
2023-01-17T00:26:15.008Z,99672.91
2023-01-17T00:28:43.872Z,99666.00
2023-01-17T00:31:13.577Z,99627.63
2023-01-17T00:33:41.205Z,99666.47
2023-01-17T00:36:09.935Z,99671.28
2023-01-17T00:38:38.980Z,99663.34
2023-01-17T00:41:09.377Z,99667.38
2023-01-17T00:43:56.069Z,99662.22
2023-01-17T00:46:41.781Z,99666.22
2023-01-17T00:49:27.632Z,99673.38
2023-01-17T00:52:13.904Z,99667.63
2023-01-17T00:54:59.680Z,99666.22
2023-01-17T00:57:45.477Z,99653.84
2023-01-17T01:00:31.767Z,99664.88
2023-01-17T01:03:17.788Z,99661.06
2023-01-17T01:06:03.823Z,99647.50
2023-01-17T01:08:49.763Z,99664.28
2023-01-17T01:11:39.208Z,99663.63
2023-01-17T01:14:28.391Z,99662.78
2023-01-17T01:17:14.324Z,99655.56
2023-01-17T01:20:00.125Z,99652.44
2023-01-17T01:22:46.081Z,99655.19
2023-01-17T01:25:31.890Z,99657.94
2023-01-17T01:28:32.921Z,99658.63
2023-01-17T01:31:20.333Z,99654.13
2023-01-17T01:33:48.279Z,99663.78
2023-01-17T01:36:16.232Z,99657.31
2023-01-17T01:38:45.020Z,99661.25
2023-01-17T01:41:12.685Z,99652.28
2023-01-17T01:43:46.358Z,99657.81
2023-01-17T01:46:16.874Z,99659.91
2023-01-17T01:48:51.077Z,99656.44
2023-01-17T01:51:33.471Z,99650.69
2023-01-17T01:54:22.453Z,99657.38
2023-01-17T01:56:52.997Z,99646.44
2023-01-17T01:59:22.989Z,99661.03
2023-01-17T02:01:53.456Z,99661.41
2023-01-17T02:04:23.041Z,99659.19
2023-01-17T02:06:56.619Z,99666.44
2023-01-17T02:09:24.739Z,99659.00
2023-01-17T02:11:52.396Z,99668.50
2023-01-17T02:14:23.242Z,99659.91
2023-01-17T02:17:16.041Z,99671.66
2023-01-17T02:19:52.728Z,99679.22
2023-01-17T02:22:51.131Z,99679.34
2023-01-17T02:25:52.408Z,99680.59
2023-01-17T02:28:48.391Z,99672.34
2023-01-17T02:31:21.272Z,99683.38
2023-01-17T02:33:54.827Z,99675.41
2023-01-17T02:36:32.370Z,99679.75
2023-01-17T02:39:23.223Z,99679.66
2023-01-17T02:42:14.743Z,99675.53
2023-01-17T02:44:44.211Z,99685.28
2023-01-17T02:47:29.758Z,99680.78
2023-01-17T02:50:14.200Z,99685.34
2023-01-17T02:52:41.629Z,99691.56
2023-01-17T02:55:11.992Z,99690.72
2023-01-17T02:58:05.819Z,99688.38
2023-01-17T03:00:46.282Z,99679.28
2023-01-17T03:03:50.952Z,99687.91
2023-01-17T03:06:31.531Z,99682.63
2023-01-17T03:08:59.103Z,99681.00
2023-01-17T03:11:27.712Z,99699.88
2023-01-17T03:13:57.192Z,99699.63
2023-01-17T03:16:28.008Z,99693.75
2023-01-17T03:18:55.592Z,99695.59
2023-01-17T03:21:24.570Z,99703.06
2023-01-17T03:23:52.526Z,99703.28
2023-01-17T03:26:20.003Z,99714.09
2023-01-17T03:28:47.612Z,99712.00
2023-01-17T03:31:20.171Z,99706.88
2023-01-17T03:33:47.692Z,99709.03
2023-01-17T03:36:15.411Z,99710.06
2023-01-17T03:38:42.861Z,99712.13
2023-01-17T03:41:10.377Z,99711.19
2023-01-17T03:43:37.872Z,99708.66
2023-01-17T03:46:07.534Z,99710.03
2023-01-17T03:48:35.068Z,99712.75
2023-01-17T03:51:02.682Z,99701.03
2023-01-17T03:53:30.176Z,99710.69
2023-01-17T03:55:57.660Z,99723.69
2023-01-17T03:58:25.090Z,99708.50
2023-01-17T04:00:52.553Z,99703.09
2023-01-17T04:03:20.061Z,99700.09
2023-01-17T04:05:47.509Z,99711.22
2023-01-17T04:08:14.923Z,99713.66
2023-01-17T04:10:42.488Z,99703.19
2023-01-17T04:13:09.950Z,99696.06
2023-01-17T04:15:37.522Z,99706.06
2023-01-17T04:18:05.907Z,99708.25
2023-01-17T04:20:34.732Z,99711.44
2023-01-17T04:23:02.902Z,99717.19
2023-01-17T04:25:31.123Z,99725.16
2023-01-17T04:28:00.435Z,99734.13
2023-01-17T04:30:29.110Z,99722.09
2023-01-17T04:32:57.142Z,99732.25
2023-01-17T04:35:25.193Z,99734.41
2023-01-17T04:37:53.235Z,99734.22
2023-01-17T04:40:20.708Z,99725.91
2023-01-17T04:42:48.688Z,99725.56
2023-01-17T04:45:16.302Z,99724.66
2023-01-17T04:47:43.831Z,99721.38
2023-01-17T04:50:12.055Z,99723.75
2023-01-17T04:52:39.670Z,99731.09
2023-01-17T04:55:08.103Z,99733.34
2023-01-17T04:57:35.513Z,99723.56
2023-01-17T05:00:03.333Z,99725.13
2023-01-17T05:02:32.009Z,99725.03
2023-01-17T05:04:59.590Z,99730.72
2023-01-17T05:07:27.085Z,99732.38
2023-01-17T05:09:54.547Z,99727.59
2023-01-17T05:12:24.825Z,99727.00
2023-01-17T05:14:52.238Z,99733.25
2023-01-17T05:17:20.131Z,99733.06
2023-01-17T05:19:47.742Z,99736.84
2023-01-17T05:22:15.627Z,99742.38
2023-01-17T05:24:47.777Z,99744.19
2023-01-17T05:27:16.164Z,99745.50
2023-01-17T05:29:43.810Z,99736.56
2023-01-17T05:32:11.347Z,99739.97
2023-01-17T05:34:38.862Z,99741.06
2023-01-17T05:37:06.394Z,99716.72
2023-01-17T05:39:33.862Z,99732.09
2023-01-17T05:42:01.602Z,99730.56
2023-01-17T05:44:29.079Z,99739.63
2023-01-17T05:46:56.957Z,99734.47
2023-01-17T05:49:24.442Z,99735.94
2023-01-17T05:51:54.683Z,99739.22
2023-01-17T05:54:22.357Z,99740.28
2023-01-17T05:56:49.840Z,99737.47
2023-01-17T05:59:28.542Z,99738.59
2023-01-17T06:02:03.640Z,99750.53
2023-01-17T06:04:31.259Z,99744.00
2023-01-17T06:06:58.871Z,99748.59
2023-01-17T06:09:26.517Z,99741.34
2023-01-17T06:11:54.159Z,99730.09
2023-01-17T06:14:21.634Z,99743.53
2023-01-17T06:16:49.282Z,99753.38
2023-01-17T06:19:16.704Z,99744.66
2023-01-17T06:21:44.120Z,99746.44
2023-01-17T06:24:11.592Z,99755.34
2023-01-17T06:26:39.369Z,99749.53
2023-01-17T06:29:07.039Z,99757.16
2023-01-17T06:31:34.675Z,99760.66
2023-01-17T06:34:03.675Z,99751.72
2023-01-17T06:36:33.267Z,99765.34
2023-01-17T06:39:00.740Z,99764.25
2023-01-17T06:41:28.319Z,99765.56
2023-01-17T06:43:56.667Z,99762.28
2023-01-17T06:46:24.274Z,99759.56
2023-01-17T06:48:52.100Z,99762.25
2023-01-17T06:51:20.001Z,99753.66
2023-01-17T06:53:50.716Z,99762.13
2023-01-17T06:56:18.262Z,99759.88
2023-01-17T06:58:50.592Z,99760.75
2023-01-17T07:01:19.279Z,99760.31
2023-01-17T07:03:46.873Z,99754.13
2023-01-17T07:06:14.428Z,99751.56
2023-01-17T07:08:42.075Z,99765.38
2023-01-17T07:11:10.018Z,99765.28
2023-01-17T07:13:38.899Z,99763.63
2023-01-17T07:16:07.674Z,99764.94
2023-01-17T07:18:35.578Z,99767.06
2023-01-17T07:21:03.085Z,99756.16
2023-01-17T07:23:30.656Z,99757.25
2023-01-17T07:26:00.476Z,99756.06
2023-01-17T07:28:28.850Z,99760.75
2023-01-17T07:30:56.835Z,99749.19
2023-01-17T07:33:24.334Z,99746.81
2023-01-17T07:35:52.036Z,99753.06
2023-01-17T07:38:20.469Z,99730.47
2023-01-17T07:40:47.998Z,99744.31
2023-01-17T07:43:15.421Z,99737.47
2023-01-17T07:45:44.534Z,99747.59
2023-01-17T07:48:12.930Z,99743.75
2023-01-17T07:50:40.535Z,99745.19
2023-01-17T07:53:08.079Z,99748.59
2023-01-17T07:55:35.708Z,99740.06
2023-01-17T07:58:10.691Z,99732.06
2023-01-17T08:00:38.284Z,99729.91
2023-01-17T08:03:06.558Z,99741.09
2023-01-17T08:05:33.934Z,99736.88
2023-01-17T08:08:01.460Z,99730.88
2023-01-17T08:10:29.013Z,99734.09
2023-01-17T08:12:56.641Z,99727.91
2023-01-17T08:15:26.892Z,99737.72
2023-01-17T08:17:54.445Z,99733.13
2023-01-17T08:20:22.018Z,99736.09
2023-01-17T08:22:49.599Z,99731.78
2023-01-17T08:25:17.180Z,99720.22
2023-01-17T08:27:44.755Z,99738.44
2023-01-17T08:30:12.677Z,99742.06
2023-01-17T08:32:41.217Z,99726.09
2023-01-17T08:35:09.568Z,99754.00
2023-01-17T08:37:38.240Z,99743.81
2023-01-17T08:40:06.731Z,99741.34
2023-01-17T08:42:39.515Z,99739.47
2023-01-17T08:45:08.914Z,99739.00
2023-01-17T08:47:36.470Z,99734.38
2023-01-17T08:50:07.480Z,99747.13
2023-01-17T08:52:36.393Z,99740.00
2023-01-17T08:55:06.225Z,99740.19
2023-01-17T08:57:33.951Z,99737.88
2023-01-17T09:00:01.410Z,99735.59
2023-01-17T09:02:32.188Z,99737.88
2023-01-17T09:05:00.999Z,99728.03
2023-01-17T09:07:30.781Z,99729.63
2023-01-17T09:09:58.263Z,99731.00
2023-01-17T09:12:25.934Z,99728.09
2023-01-17T09:14:53.465Z,99723.03
2023-01-17T09:17:21.222Z,99730.25
2023-01-17T09:19:49.000Z,99725.44
2023-01-17T09:22:16.445Z,99734.25
2023-01-17T09:24:44.009Z,99731.34
2023-01-17T09:27:11.470Z,99721.19
2023-01-17T09:29:38.978Z,99731.59
2023-01-17T09:32:06.469Z,99727.59
2023-01-17T09:34:33.945Z,99732.41
2023-01-17T09:37:01.409Z,99722.50
2023-01-17T09:39:28.920Z,99726.25
2023-01-17T09:42:20.019Z,99722.50
2023-01-17T09:44:53.704Z,99721.44
2023-01-17T09:47:36.875Z,99724.09
2023-01-17T09:50:18.594Z,99730.25
2023-01-17T09:52:46.381Z,99730.47
2023-01-17T09:55:16.089Z,99727.03
2023-01-17T09:57:56.953Z,99719.03
2023-01-17T10:00:42.152Z,99731.56
2023-01-17T10:03:46.724Z,99726.78
2023-01-17T10:06:23.187Z,99726.50
2023-01-17T10:08:53.433Z,99715.28
2023-01-17T10:11:45.878Z,99716.31
2023-01-17T10:14:25.456Z,99716.88
2023-01-17T10:17:22.001Z,99712.09
2023-01-17T10:20:24.753Z,99713.72
2023-01-17T10:22:58.062Z,99714.75
2023-01-17T10:25:55.365Z,99711.03
2023-01-17T10:28:39.622Z,99713.16
2023-01-17T10:31:28.842Z,99705.13
2023-01-17T10:34:04.130Z,99708.31
2023-01-17T10:36:38.477Z,99713.91
2023-01-17T10:39:19.658Z,99712.59
2023-01-17T10:41:56.020Z,99721.38
2023-01-17T10:44:39.252Z,99711.25
2023-01-17T10:47:12.596Z,99711.72
2023-01-17T10:49:45.748Z,99706.69
2023-01-17T10:52:25.155Z,99711.53
2023-01-17T10:55:34.490Z,99705.69
2023-01-17T10:58:03.846Z,99705.91
2023-01-17T11:00:44.227Z,99704.84
2023-01-17T11:03:18.488Z,99697.91
2023-01-17T11:05:45.996Z,99689.84
2023-01-17T11:08:15.114Z,99697.09
2023-01-17T11:10:50.233Z,99690.16
2023-01-17T11:13:34.620Z,99689.06
2023-01-17T11:16:07.042Z,99697.84
2023-01-17T11:18:41.097Z,99689.06
2023-01-17T11:21:12.495Z,99690.19
2023-01-17T11:23:52.237Z,99683.75
2023-01-17T11:26:34.779Z,99679.78
2023-01-17T11:29:31.866Z,99655.47
2023-01-17T11:32:32.607Z,99677.56
2023-01-17T11:35:18.716Z,99678.34
2023-01-17T11:37:58.782Z,99666.94
2023-01-17T11:40:36.448Z,99666.31
2023-01-17T11:43:06.703Z,99676.19
2023-01-17T11:45:34.940Z,99670.53
2023-01-17T11:48:13.568Z,99670.97
2023-01-17T11:51:00.536Z,99671.91
2023-01-17T11:53:35.241Z,99668.09
2023-01-17T11:56:07.485Z,99669.47
2023-01-17T11:58:38.371Z,99684.19
2023-01-17T12:01:28.693Z,99675.44
2023-01-17T12:04:28.368Z,99673.63
2023-01-17T12:07:17.083Z,99671.59
2023-01-17T12:10:02.869Z,99680.78
2023-01-17T12:13:26.951Z,99667.47
2023-01-17T12:16:31.928Z,99658.88
2023-01-17T12:19:17.643Z,99666.00
2023-01-17T12:22:00.610Z,99667.19
2023-01-17T12:24:48.303Z,99670.34
2023-01-17T12:27:23.217Z,99652.44
2023-01-17T12:29:59.070Z,99659.22
2023-01-17T12:32:42.099Z,99672.88
2023-01-17T12:35:20.615Z,99671.03
2023-01-17T12:38:04.415Z,99675.53
2023-01-17T12:40:51.035Z,99671.06
2023-01-17T12:43:29.541Z,99665.28
2023-01-17T12:45:58.520Z,99675.41
2023-01-17T12:48:36.219Z,99675.41
2023-01-17T12:51:07.034Z,99680.16
2023-01-17T12:53:59.936Z,99650.50
2023-01-17T12:56:35.527Z,99679.72
2023-01-17T12:59:40.324Z,99683.25
2023-01-17T13:02:36.963Z,99680.16
2023-01-17T13:05:15.536Z,99680.84
2023-01-17T13:07:51.646Z,99686.16
2023-01-17T13:10:36.004Z,99667.09
2023-01-17T13:13:24.667Z,99678.56
2023-01-17T13:16:05.532Z,99663.75
2023-01-17T13:18:33.761Z,99673.09
2023-01-17T13:21:31.859Z,99669.53
2023-01-17T13:24:08.351Z,99667.41
2023-01-17T13:26:50.897Z,99670.66
2023-01-17T13:29:43.355Z,99671.75
2023-01-17T13:32:29.285Z,99674.16
2023-01-17T13:35:00.969Z,99662.91
2023-01-17T13:37:58.239Z,99663.66
2023-01-17T13:40:50.029Z,99655.09
2023-01-17T13:43:27.001Z,99660.53
2023-01-17T13:45:59.032Z,99669.41
2023-01-17T13:48:32.073Z,99666.47
2023-01-17T13:51:00.947Z,99661.63
2023-01-17T13:53:34.446Z,99665.22
2023-01-17T13:56:12.781Z,99635.06
2023-01-17T13:58:50.648Z,99667.00
2023-01-17T14:01:24.595Z,99670.78
2023-01-17T14:03:53.035Z,99658.41
2023-01-17T14:06:45.186Z,99665.69
2023-01-17T14:09:30.515Z,99660.44
2023-01-17T14:12:06.188Z,99653.69
2023-01-17T14:14:43.145Z,99653.94
2023-01-17T14:17:16.794Z,99655.97
2023-01-17T14:19:49.536Z,99646.63
2023-01-17T14:22:25.925Z,99651.50
2023-01-17T14:25:06.056Z,99647.00
2023-01-17T14:27:35.172Z,99650.13
2023-01-17T14:30:07.719Z,99659.19
2023-01-17T14:32:37.687Z,99638.84
2023-01-17T14:35:06.551Z,99647.66
2023-01-17T14:37:43.215Z,99656.09
2023-01-17T14:40:16.770Z,99646.50
2023-01-17T14:42:46.016Z,99642.50
2023-01-17T14:45:18.816Z,99650.50
2023-01-17T14:47:46.632Z,99642.72
2023-01-17T14:50:30.749Z,99655.94
2023-01-17T14:53:13.680Z,99638.91
2023-01-17T14:55:53.369Z,99636.69
2023-01-17T14:58:36.735Z,99653.16
2023-01-17T15:01:11.820Z,99638.09
2023-01-17T15:03:51.907Z,99652.63
2023-01-17T15:06:38.859Z,99648.00
2023-01-17T15:09:17.759Z,99653.28
2023-01-17T15:11:47.338Z,99642.75
2023-01-17T15:14:30.632Z,99649.19
2023-01-17T15:17:08.720Z,99650.94
2023-01-17T15:19:48.730Z,99663.84
2023-01-17T15:22:19.120Z,99662.41
2023-01-17T15:24:48.397Z,99642.44
2023-01-17T15:27:17.299Z,99658.22
2023-01-17T15:29:46.937Z,99653.75
2023-01-17T15:32:34.079Z,99649.81
2023-01-17T15:35:03.169Z,99648.59
2023-01-17T15:37:33.816Z,99657.25
2023-01-17T15:40:20.213Z,99654.44
2023-01-17T15:42:51.451Z,99659.44
2023-01-17T15:45:25.000Z,99652.03
2023-01-17T15:47:52.940Z,99662.66
2023-01-17T15:50:20.723Z,99665.06
2023-01-17T15:52:53.477Z,99638.44
2023-01-17T15:55:30.097Z,99647.56
2023-01-17T15:57:57.884Z,99653.13
2023-01-17T16:00:33.024Z,99642.22
2023-01-17T16:03:01.309Z,99640.34
2023-01-17T16:05:34.173Z,99657.22
2023-01-17T16:08:13.591Z,99663.63
2023-01-17T16:10:51.813Z,99650.53
2023-01-17T16:13:23.459Z,99663.63
2023-01-17T16:15:51.808Z,99632.13
2023-01-17T16:18:26.226Z,99647.06
2023-01-17T16:21:01.838Z,99635.66
2023-01-17T16:23:32.273Z,99657.75
2023-01-17T16:26:00.477Z,99653.56
2023-01-17T16:28:28.339Z,99649.13
2023-01-17T16:30:56.426Z,99641.75
2023-01-17T16:33:24.446Z,99640.97
2023-01-17T16:35:54.946Z,99644.81
2023-01-17T16:38:22.621Z,99643.97
2023-01-17T16:40:52.477Z,99643.41
2023-01-17T16:43:22.546Z,99639.19
2023-01-17T16:45:54.331Z,99634.59
2023-01-17T16:48:22.734Z,99649.78
2023-01-17T16:50:53.341Z,99640.72
2023-01-17T16:53:26.495Z,99650.97
2023-01-17T16:55:57.771Z,99642.16
2023-01-17T16:58:25.892Z,99628.75
2023-01-17T17:00:58.171Z,99642.13
2023-01-17T17:03:30.077Z,99640.47
2023-01-17T17:06:01.941Z,99646.63
2023-01-17T17:08:30.326Z,99648.09
2023-01-17T17:11:16.398Z,99641.31
2023-01-17T17:13:46.495Z,99657.19
2023-01-17T17:16:19.242Z,99657.44
2023-01-17T17:18:53.997Z,99653.66
2023-01-17T17:21:21.991Z,99649.00
2023-01-17T17:23:57.093Z,99654.28
2023-01-17T17:26:31.290Z,99656.84
2023-01-17T17:28:59.348Z,99648.47
2023-01-17T17:31:27.646Z,99651.03
2023-01-17T17:33:59.825Z,99644.88
2023-01-17T17:36:27.642Z,99645.31
2023-01-17T17:38:58.994Z,99638.03
2023-01-17T17:41:29.659Z,99633.94
2023-01-17T17:43:58.146Z,99639.78
2023-01-17T17:46:27.496Z,99636.31
2023-01-17T17:48:57.072Z,99634.38
2023-01-17T17:51:26.107Z,99629.47
2023-01-17T17:53:55.766Z,99623.28
2023-01-17T17:56:24.198Z,99630.25
2023-01-17T17:58:51.955Z,99615.94
2023-01-17T18:01:20.070Z,99631.63
2023-01-17T18:03:47.777Z,99628.22
2023-01-17T18:06:17.695Z,99620.81
2023-01-17T18:08:46.202Z,99623.47
2023-01-17T18:11:18.781Z,99620.06
2023-01-17T18:13:51.069Z,99620.59
2023-01-17T18:16:26.855Z,99627.31
2023-01-17T18:18:56.683Z,99624.91
2023-01-17T18:21:40.395Z,99623.78
2023-01-17T18:24:13.755Z,99640.81
2023-01-17T18:26:42.457Z,99633.31
2023-01-17T18:29:15.025Z,99626.38
2023-01-17T18:31:44.483Z,99627.47
2023-01-17T18:34:17.688Z,99630.00
2023-01-17T18:36:45.602Z,99629.41
2023-01-17T18:39:19.672Z,99634.03
2023-01-17T18:41:52.075Z,99626.31
2023-01-17T18:44:22.113Z,99625.22
2023-01-17T18:46:51.952Z,99633.78
2023-01-17T18:49:19.541Z,99629.50
2023-01-17T18:51:51.663Z,99634.03
2023-01-17T18:54:20.601Z,99635.88
2023-01-17T18:56:48.905Z,99639.34
2023-01-17T18:59:18.833Z,99635.66
2023-01-17T19:01:47.100Z,99640.69
2023-01-17T19:04:16.571Z,99648.69
2023-01-17T19:06:47.067Z,99648.69
2023-01-17T19:09:15.878Z,99645.44
2023-01-17T19:11:45.312Z,99636.81
2023-01-17T19:14:13.243Z,99638.50
2023-01-17T19:16:42.443Z,99647.84
2023-01-17T19:19:15.476Z,99650.31
2023-01-17T19:21:44.016Z,99644.66
2023-01-17T19:24:13.520Z,99637.09
2023-01-17T19:26:42.024Z,99635.72
2023-01-17T19:29:11.184Z,99636.28
2023-01-17T19:31:50.193Z,99641.09
2023-01-17T19:34:19.848Z,99619.94
2023-01-17T19:36:47.638Z,99642.84
2023-01-17T19:39:15.238Z,99639.41
2023-01-17T19:41:44.857Z,99638.47
2023-01-17T19:44:14.315Z,99638.09
2023-01-17T19:46:42.083Z,99635.63
2023-01-17T19:49:09.782Z,99636.94
2023-01-17T19:51:39.558Z,99639.91
2023-01-17T19:54:08.635Z,99638.56
2023-01-17T19:56:36.178Z,99642.00
2023-01-17T19:59:04.150Z,99642.13
2023-01-17T20:01:34.012Z,99621.66
2023-01-17T20:04:03.499Z,99625.47
2023-01-17T20:06:36.737Z,99628.50
2023-01-17T20:09:06.443Z,99631.81
2023-01-17T20:11:34.294Z,99636.44
2023-01-17T20:14:02.216Z,99637.44
2023-01-17T20:16:32.280Z,99640.00
2023-01-17T20:19:03.014Z,99643.09
2023-01-17T20:21:31.961Z,99640.44
2023-01-17T20:24:00.790Z,99634.44
2023-01-17T20:26:36.253Z,99637.34
2023-01-17T20:29:24.017Z,99626.50
2023-01-17T20:31:55.476Z,99616.31
2023-01-17T20:34:26.127Z,99612.06
2023-01-17T20:36:57.775Z,99618.09
2023-01-17T20:39:25.450Z,99613.72
2023-01-17T20:41:53.074Z,99617.66
2023-01-17T20:44:20.738Z,99619.97
2023-01-17T20:46:48.495Z,99624.56
2023-01-17T20:49:19.448Z,99617.75
2023-01-17T20:51:47.621Z,99627.97
2023-01-17T20:54:19.697Z,99625.78
2023-01-17T20:56:48.203Z,99627.63
2023-01-17T20:59:18.545Z,99626.44
2023-01-17T21:01:46.942Z,99625.63
2023-01-17T21:04:15.086Z,99625.06
2023-01-17T21:06:43.943Z,99618.16
2023-01-17T21:09:14.220Z,99625.94
2023-01-17T21:11:41.800Z,99618.72
2023-01-17T21:14:09.474Z,99626.09
2023-01-17T21:16:37.229Z,99621.28
2023-01-17T21:19:05.549Z,99618.63
2023-01-17T21:21:33.098Z,99616.31
2023-01-17T21:24:00.677Z,99612.69
2023-01-17T21:26:29.142Z,99615.88
2023-01-17T21:28:58.461Z,99615.97
2023-01-17T21:31:33.805Z,99603.81
2023-01-17T21:34:03.982Z,99615.00
2023-01-17T21:36:34.561Z,99605.31
2023-01-17T21:39:07.514Z,99605.03
2023-01-17T21:41:38.096Z,99600.03
2023-01-17T21:44:13.305Z,99604.47
2023-01-17T21:46:41.694Z,99603.59
2023-01-17T21:49:13.559Z,99609.47
2023-01-17T21:52:05.978Z,99600.78
2023-01-17T21:55:06.050Z,99601.22
2023-01-17T21:57:52.511Z,99600.47
2023-01-17T22:00:20.066Z,99602.25
2023-01-17T22:02:48.448Z,99608.34
2023-01-17T22:05:19.903Z,99600.28
2023-01-17T22:08:06.229Z,99595.31
2023-01-17T22:10:44.790Z,99592.84
2023-01-17T22:13:17.423Z,99590.63
2023-01-17T22:15:45.697Z,99589.81
2023-01-17T22:18:14.844Z,99583.47
2023-01-17T22:20:43.197Z,99598.31
2023-01-17T22:23:12.026Z,99589.06
2023-01-17T22:25:39.600Z,99591.47
2023-01-17T22:28:07.159Z,99591.44
2023-01-17T22:30:34.750Z,99584.09
2023-01-17T22:33:02.261Z,99586.69
2023-01-17T22:35:29.808Z,99587.69
2023-01-17T22:37:57.334Z,99592.41
2023-01-17T22:40:26.427Z,99597.97
2023-01-17T22:43:17.237Z,99592.66
2023-01-17T22:45:46.332Z,99584.69
2023-01-17T22:48:13.993Z,99586.50
2023-01-17T22:50:41.455Z,99584.81
2023-01-17T22:53:10.681Z,99595.94
2023-01-17T22:55:38.191Z,99572.75
2023-01-17T22:58:05.770Z,99594.34
2023-01-17T23:00:33.306Z,99592.84
2023-01-17T23:03:01.125Z,99588.44
2023-01-17T23:05:28.785Z,99595.81
2023-01-17T23:07:56.328Z,99601.13
2023-01-17T23:10:44.076Z,99600.00
2023-01-17T23:13:11.701Z,99603.94
2023-01-17T23:15:57.586Z,99596.41
2023-01-17T23:18:43.484Z,99604.16
2023-01-17T23:21:11.065Z,99599.44
2023-01-17T23:23:38.586Z,99597.44
2023-01-17T23:26:06.249Z,99610.69
2023-01-17T23:28:33.708Z,99600.34
2023-01-17T23:31:06.756Z,99602.81
2023-01-17T23:33:34.215Z,99599.59
2023-01-17T23:36:01.852Z,99589.50
2023-01-17T23:38:34.917Z,99600.72
2023-01-17T23:41:23.134Z,99602.09
2023-01-17T23:43:54.362Z,99598.41
2023-01-17T23:46:22.938Z,99598.56
2023-01-17T23:48:50.532Z,99600.72
2023-01-17T23:51:18.251Z,99603.72
2023-01-17T23:53:45.876Z,99603.72
2023-01-17T23:56:21.170Z,99600.34
2023-01-17T23:58:49.168Z,99606.38
